Terminal Aerodrome Forecast
Issued by NWS Sterling, VA

Current Version | Previous Version | Graphics & Text | Print | Product List | Glossary On
Versions: 1 2 3 4 5 6 7 8 9 10 11 12 13 14 15 16
617
FTUS41 KLWX 272208 AAB
TAFMRB
TAF AMD
KMRB 272208Z 2722/2818 19005KT P6SM VCTS SCT050CB
      TEMPO 2722/2724 VRB15KT 5SM -TSRA
     FM280200 VRB03KT P6SM SKC
     FM280600 VRB03KT 3SM BR SKC
     FM281000 00000KT 1 1/2SM BR SKC
     FM281400 00000KT P6SM SKC=

USA.gov is the U.S. government's official web portal to all federal, state and local government web resources and services.